tititudorancea.com
Station Historical Data
Daily Summary for June 17, 2018 Units:  Metric    English   Both
« Previous Day
Next Day »
Daily Weekly Monthly Yearly Custom
  High: Low: Average:
Temperature: -17.8 °C 6.3 °C 7.6 °C
Dew Point: -17.8 °C 4.8 °C 6.1 °C
Humidity: Humidity % 83 % 90 %
Wind Speed: 0 km/h 16.1 km/h 30.4 km/h
Wind Gust: 0 km/h - -
Wind:- - SW
Pressure: 0 hPa 1014.4 hPa -
Precipitation: 7.37 mm    
Historical Graphs
 
 
Ararat weather Find more about Weather in Ararat, AU


 



 


Tabular Data for June 17, 2018
Time Temperature Dew Point Pressure Wind Wind Speed Wind Gust Humidity Rainfall Rate (Hourly)
-17.8 °C -17.8 °C 0 hPa Calm     Humidity % 0 mm
00:04 6.4 °C 4.8 °C 1015.1 hPa SW 20.4 km/h 15.1 km/h 89 % 0.25 mm
00:09 6.4 °C 4.9 °C 1015.1 hPa SW 27.8 km/h 18.7 km/h 90 % 0.51 mm
00:14 6.3 °C 4.8 °C 1015.1 hPa SW 19.3 km/h 12.2 km/h 90 % 0.51 mm
00:19 6.3 °C 4.8 °C 1014.8 hPa WSW 18.5 km/h 10.8 km/h 90 % 0.51 mm
00:24 6.3 °C 4.8 °C 1014.8 hPa North 18.5 km/h 9.5 km/h 90 % 0.76 mm
00:29 6.3 °C 4.8 °C 1014.8 hPa WSW 18.5 km/h 13.8 km/h 90 % 0.76 mm
00:34 6.3 °C 4.9 °C 1014.8 hPa WSW 16.1 km/h 11.6 km/h 91 % 0.76 mm
00:39 6.3 °C 4.9 °C 1014.8 hPa WSW 18.5 km/h 12.1 km/h 91 % 0.76 mm
00:44 6.3 °C 4.9 °C 1014.8 hPa North 25.9 km/h 18.7 km/h 91 % 0.76 mm
00:49 6.3 °C 4.9 °C 1014.8 hPa WSW 25.9 km/h 18.2 km/h 91 % 1.02 mm
00:54 6.3 °C 4.9 °C 1014.4 hPa SW 20.4 km/h 17.7 km/h 91 % 1.02 mm
00:59 6.4 °C 5 °C 1014.8 hPa SW 20.4 km/h 16.9 km/h 91 % 0.76 mm
01:04 6.4 °C 5 °C 1014.8 hPa North 18.5 km/h 12.9 km/h 91 % 0.76 mm
01:09 6.4 °C 5 °C 1014.4 hPa WSW 18.5 km/h 11.1 km/h 91 % 0.51 mm
01:14 6.4 °C 5.1 °C 1014.8 hPa WSW 22.2 km/h 13.2 km/h 91 % 0.51 mm
01:19 6.4 °C 5.1 °C 1014.4 hPa North 22.2 km/h 14.8 km/h 91 % 0.51 mm
01:24 6.5 °C 5.1 °C 1014.8 hPa WSW 22.2 km/h 12.9 km/h 91 % 0.25 mm
01:29 6.6 °C 5.2 °C 1014.8 hPa WSW 24.1 km/h 15.6 km/h 91 % 0.51 mm
01:34 6.6 °C 5.2 °C 1014.8 hPa WSW 22.5 km/h 16.6 km/h 91 % 0.51 mm
01:39 6.6 °C 5.2 °C 1014.8 hPa WSW 25.9 km/h 18.8 km/h 91 % 0.51 mm
01:44 6.7 °C 5.3 °C 1014.8 hPa North 24.1 km/h 16.4 km/h 91 % 0.51 mm
01:49 6.7 °C 5.5 °C 1014.8 hPa WSW 30.6 km/h 16.9 km/h 92 % 0.25 mm
01:54 6.8 °C 5.6 °C 1014.8 hPa WSW 20.4 km/h 16.4 km/h 92 % 0.51 mm
01:59 6.8 °C 5.6 °C 1014.8 hPa WSW 22.5 km/h 12.9 km/h 92 % 0.51 mm
02:04 6.8 °C 5.6 °C 1014.8 hPa SW 24.1 km/h 21.7 km/h 92 % 0.51 mm
02:09 6.9 °C 5.7 °C 1014.8 hPa SW 27.4 km/h 17.2 km/h 92 % 0.51 mm
02:14 6.9 °C 5.7 °C 1014.8 hPa SW 20.4 km/h 12.7 km/h 92 % 0.76 mm
02:19 6.9 °C 5.7 °C 1014.8 hPa SW 18.5 km/h 8.4 km/h 92 % 0.76 mm
02:24 6.9 °C 5.7 °C 1014.8 hPa North 17.7 km/h 12.7 km/h 92 % 0.76 mm
02:29 6.9 °C 5.7 °C 1014.8 hPa SW 22.2 km/h 14.5 km/h 92 % 0.51 mm
02:34 6.9 °C 5.7 °C 1014.8 hPa North 29.6 km/h 14.8 km/h 92 % 0.51 mm
02:39 6.9 °C 5.7 °C 1014.8 hPa SW 18.5 km/h 11.4 km/h 92 % 0.76 mm
02:44 6.9 °C 5.7 °C 1014.8 hPa SW 20.4 km/h 13.4 km/h 92 % 0.76 mm
02:49 7 °C 5.9 °C 1014.8 hPa SW 29.6 km/h 19.2 km/h 93 % 0.76 mm
02:54 7.1 °C 6 °C 1014.8 hPa North 24.1 km/h 15.6 km/h 93 % 0.51 mm
02:59 7.1 °C 5.9 °C 1014.8 hPa SW 18.5 km/h 11.7 km/h 92 % 0.51 mm
03:04 7.1 °C 5.9 °C 1014.8 hPa WSW 18.5 km/h 14.3 km/h 92 % 0.51 mm
03:09 7.2 °C 5.9 °C 1014.8 hPa SW 16.7 km/h 14.2 km/h 92 % 0.51 mm
03:14 7.2 °C 5.9 °C 1014.8 hPa SW 42.6 km/h 20.3 km/h 92 % 0.51 mm
03:19 7.2 °C 5.9 °C 1014.8 hPa SW 20.9 km/h 19 km/h 92 % 0.51 mm
03:24 7.2 °C 5.9 °C 1014.8 hPa North 22.2 km/h 16.4 km/h 92 % 0.51 mm
03:29 7.1 °C 5.9 °C 1014.8 hPa SW 25.9 km/h 16.3 km/h 92 % 0.76 mm
03:34 7.1 °C 6.1 °C 1014.8 hPa SW 27.8 km/h 19.6 km/h 93 % 0.76 mm
03:39 7.2 °C 6.1 °C 1014.8 hPa SSW 27.8 km/h 11.4 km/h 93 % 0.51 mm
03:44 7.2 °C 6.1 °C 1014.8 hPa SSW 22.5 km/h 13 km/h 93 % 0.76 mm
03:49 7.1 °C 6.1 °C 1014.8 hPa SSW 19.3 km/h 12.1 km/h 93 % 1.02 mm
03:54 7.1 °C 6.1 °C 1014.8 hPa SW 38.9 km/h 16.1 km/h 93 % 1.27 mm
03:59 7.1 °C 6 °C 1014.8 hPa WSW 29.6 km/h 21.4 km/h 93 % 1.52 mm
04:04 7.1 °C 6 °C 1014.8 hPa North 31.5 km/h 20 km/h 93 % 1.52 mm
04:09 7.1 °C 6 °C 1014.8 hPa SSW 32.2 km/h 25.7 km/h 93 % 1.52 mm
04:14 7.1 °C 5.9 °C 1014.4 hPa SSW 29.6 km/h 24.6 km/h 92 % 1.52 mm
04:19 7.1 °C 5.9 °C 1014.8 hPa SW 18.5 km/h 11.3 km/h 92 % 1.52 mm
04:24 7.1 °C 5.9 °C 1014.8 hPa North 31.5 km/h 20 km/h 92 % 1.27 mm
04:29 7.2 °C 5.9 °C 1014.8 hPa SW 33.3 km/h 20.3 km/h 92 % 1.02 mm
04:34 7.2 °C 5.9 °C 1014.8 hPa SW 31.5 km/h 22 km/h 92 % 1.02 mm
04:39 7.2 °C 5.9 °C 1014.8 hPa North 27.8 km/h 17.9 km/h 92 % 1.02 mm
04:44 7.2 °C 5.9 °C 1015.1 hPa SW 24.1 km/h 14.2 km/h 92 % 0.76 mm
04:49 7.2 °C 5.9 °C 1015.1 hPa SW 37 km/h 29.1 km/h 92 % 0.51 mm
04:54 7.2 °C 5.9 °C 1015.1 hPa North 31.5 km/h 23 km/h 92 % 0.51 mm
04:59 7.1 °C 5.9 °C 1015.1 hPa SSW 31.5 km/h 22.4 km/h 92 % 0.76 mm
05:04 7 °C 5.8 °C 1015.1 hPa SW 27.8 km/h 14.5 km/h 92 % 1.27 mm
05:09 6.9 °C 5.7 °C 1015.1 hPa SSW 24.1 km/h 16.7 km/h 92 % 1.02 mm
05:14 6.9 °C 5.7 °C 1015.1 hPa SSW 20.4 km/h 14 km/h 92 % 1.27 mm
05:19 6.9 °C 5.7 °C 1015.1 hPa SW 27.8 km/h 18.2 km/h 92 % 1.27 mm
05:24 6.9 °C 5.7 °C 1015.1 hPa SW 27.8 km/h 17.4 km/h 92 % 1.27 mm
05:29 6.9 °C 5.7 °C 1015.1 hPa North 20.4 km/h 11.3 km/h 92 % 1.52 mm
05:34 6.9 °C 5.9 °C 1015.5 hPa SW 22.2 km/h 20.1 km/h 93 % 1.52 mm
05:39 6.9 °C 5.8 °C 1015.1 hPa North 31.5 km/h 19.2 km/h 93 % 1.78 mm
05:44 6.9 °C 5.8 °C 1015.1 hPa SSW 33.3 km/h 14.6 km/h 93 % 2.03 mm
05:49 6.9 °C 5.8 °C 1015.1 hPa SW 25.9 km/h 20.3 km/h 93 % 2.03 mm
05:54 6.9 °C 5.8 °C 1015.1 hPa SW 29.6 km/h 15.3 km/h 93 % 1.78 mm
05:59 6.9 °C 5.8 °C 1015.1 hPa SW 27.8 km/h 16.6 km/h 93 % 1.52 mm
06:04 6.9 °C 5.7 °C 1015.1 hPa SW 27.8 km/h 20.3 km/h 92 % 1.02 mm
06:09 6.9 °C 5.7 °C 1015.1 hPa SW 22.2 km/h 16.6 km/h 92 % 1.02 mm
06:14 6.9 °C 5.7 °C 1015.5 hPa North 29.6 km/h 20.4 km/h 92 % 0.76 mm
06:19 6.9 °C 5.7 °C 1015.5 hPa SW 27.8 km/h 15.8 km/h 92 % 0.76 mm
06:24 6.9 °C 5.7 °C 1015.5 hPa WSW 37 km/h 25.1 km/h 92 % 0.76 mm
06:29 6.9 °C 5.7 °C 1015.5 hPa North 31.5 km/h 16.3 km/h 92 % 0.76 mm
06:34 7 °C 5.8 °C 1015.8 hPa SW 24.1 km/h 15.4 km/h 92 % 0.51 mm
06:39 7.1 °C 5.8 °C 1015.8 hPa SW 35.2 km/h 20.9 km/h 92 % 0.51 mm
06:44 7.1 °C 5.9 °C 1015.8 hPa SW 25.9 km/h 18.3 km/h 92 % 0.25 mm
06:49 7.2 °C 5.9 °C 1015.8 hPa SW 31.5 km/h 19.3 km/h 92 % 0.25 mm
06:54 7.2 °C 5.9 °C 1016.1 hPa North 33.3 km/h 22.4 km/h 92 % 0.51 mm
06:59 7.2 °C 5.9 °C 1016.1 hPa WSW 29.6 km/h 21.7 km/h 92 % 0.51 mm
07:04 7.1 °C 5.9 °C 1016.1 hPa SSW 38.9 km/h 27.2 km/h 92 % 0.76 mm
07:09 7.1 °C 5.9 °C 1016.1 hPa West 40.7 km/h 26.4 km/h 92 % 0.76 mm
07:14 7.1 °C 5.8 °C 1016.1 hPa SSW 25.9 km/h 22 km/h 92 % 0.76 mm
07:19 7.1 °C 5.8 °C 1016.1 hPa North 38.9 km/h 26.1 km/h 92 % 0.76 mm
07:24 7.1 °C 5.8 °C 1016.1 hPa SW 31.5 km/h 17.2 km/h 92 % 0.76 mm
07:29 7.1 °C 5.8 °C 1016.5 hPa SSW 27.8 km/h 22.7 km/h 92 % 0.51 mm
07:34 7.1 °C 5.9 °C 1016.5 hPa SW 38.9 km/h 27.2 km/h 92 % 0.51 mm
07:39 7.1 °C 5.9 °C 1016.5 hPa North 37 km/h 24.3 km/h 92 % 0.76 mm
07:44 7.2 °C 5.9 °C 1016.5 hPa North 35.2 km/h 18.5 km/h 92 % 0.76 mm
07:49 7.2 °C 5.9 °C 1016.5 hPa SSW 33.3 km/h 30.9 km/h 92 % 0.76 mm
07:54 7.1 °C 5.9 °C 1016.5 hPa SSW 35.2 km/h 22.9 km/h 92 % 0.51 mm
07:59 7 °C 5.6 °C 1016.5 hPa SSW 31.5 km/h 22 km/h 91 % 0.51 mm
08:04 7.1 °C 5.7 °C 1016.5 hPa SW 40.7 km/h 19.2 km/h 91 % 0.51 mm
08:09 7.1 °C 5.7 °C 1016.5 hPa SSW 31.5 km/h 25.9 km/h 91 % 0.51 mm
08:14 7.2 °C 5.8 °C 1016.8 hPa WSW 27.8 km/h 19.2 km/h 91 % 0.51 mm
08:19 7.2 °C 5.8 °C 1016.8 hPa SSW 41.8 km/h 30.4 km/h 91 % 0.51 mm
08:24 7.1 °C 5.7 °C 1016.8 hPa WSW 42.6 km/h 19.2 km/h 91 % 0.51 mm
08:29 7.1 °C 5.7 °C 1016.8 hPa SW 29.6 km/h 16.7 km/h 91 % 0.51 mm
08:34 7.2 °C 5.9 °C 1016.8 hPa SW 42.6 km/h 24.9 km/h 92 % 0.51 mm
08:39 7.2 °C 5.8 °C 1016.8 hPa SSW 35.2 km/h 28.6 km/h 91 % 0.25 mm
08:44 7.3 °C 5.9 °C 1016.8 hPa SSW 40.7 km/h 40.7 km/h 91 % 0.25 mm
08:49 7.3 °C 5.9 °C 1016.8 hPa SW 35.2 km/h 30.7 km/h 91 % 0.25 mm
08:54 7.4 °C 6 °C 1017.2 hPa SW 38.9 km/h 25.6 km/h 91 % 0 mm
08:59 7.4 °C 6.1 °C 1016.8 hPa SSW 37 km/h 24.6 km/h 91 % 0 mm
09:04 7.6 °C 6.2 °C 1016.8 hPa SW 44.4 km/h 25.1 km/h 91 % 0.25 mm
09:09 7.6 °C 6.2 °C 1016.8 hPa SW 38.9 km/h 24.1 km/h 91 % 0.25 mm
09:14 7.7 °C 6.3 °C 1016.8 hPa SSW 29.6 km/h 26.1 km/h 91 % 0.25 mm
09:19 7.8 °C 6.4 °C 1017.2 hPa WSW 38.9 km/h 29 km/h 91 % 0.25 mm
09:24 7.8 °C 6.4 °C 1017.2 hPa SSW 42.6 km/h 18.7 km/h 91 % 0.25 mm
09:29 7.8 °C 6.4 °C 1017.2 hPa North 31.5 km/h 29 km/h 91 % 0.25 mm
09:34 7.7 °C 6.3 °C 1017.2 hPa SW 37 km/h 24.6 km/h 91 % 0.25 mm
09:39 7.8 °C 6.4 °C 1017.5 hPa SW 37 km/h 27 km/h 91 % 0.25 mm
09:44 7.9 °C 6.5 °C 1017.5 hPa SSW 35.2 km/h 23.2 km/h 91 % 0.25 mm
09:49 8.1 °C 6.7 °C 1017.5 hPa SW 38.9 km/h 20.6 km/h 91 % 0.25 mm
09:54 8.2 °C 6.8 °C 1017.5 hPa SSW 29.6 km/h 20.3 km/h 91 % 0.25 mm
09:59 8.2 °C 6.6 °C 1017.5 hPa SSW 42.6 km/h 24.9 km/h 90 % 0.25 mm
10:04 8.2 °C 6.6 °C 1017.8 hPa SW 42.6 km/h 26.9 km/h 90 % 0 mm
10:09 8.2 °C 6.8 °C 1017.8 hPa SSW 22.5 km/h 15 km/h 91 % 0 mm
10:14 8.3 °C 6.9 °C 1017.8 hPa SSW 25.9 km/h 16.6 km/h 91 % 0 mm
10:19 8.4 °C 7 °C 1017.8 hPa SW 35.4 km/h 24.6 km/h 91 % 0 mm
10:24 8.4 °C 7 °C 1018.2 hPa SW 31.5 km/h 25.1 km/h 91 % 0 mm
10:29 8.4 °C 7.1 °C 1018.2 hPa SSW 31.5 km/h 21.7 km/h 91 % 0 mm
10:34 8.4 °C 7.1 °C 1018.2 hPa SSW 35.2 km/h 17.2 km/h 91 % 0 mm
10:39 8.5 °C 7.1 °C 1018.2 hPa SW 31.5 km/h 16.7 km/h 91 % 0 mm
10:44 8.6 °C 7.1 °C 1018.2 hPa SSW 31.5 km/h 18.7 km/h 90 % 0 mm
10:49 8.7 °C 7.2 °C 1018.2 hPa SSW 37 km/h 26.9 km/h 90 % 0 mm
10:54 8.8 °C 7.1 °C 1018.2 hPa SSW 31.5 km/h 23.8 km/h 89 % 0 mm
10:59 8.9 °C 7.2 °C 1018.2 hPa SSW 33.3 km/h 26.4 km/h 89 % 0 mm
11:04 9 °C 7.3 °C 1018.2 hPa SSW 42.6 km/h 29.6 km/h 89 % 0 mm
11:09 9.1 °C 7.3 °C 1018.5 hPa SSW 29.6 km/h 19.8 km/h 89 % 0 mm
11:14 9.1 °C 7.3 °C 1018.5 hPa SSW 22.2 km/h 16.1 km/h 89 % 0 mm
11:19 8.9 °C 7.2 °C 1018.5 hPa South 25.9 km/h 15.8 km/h 89 % 0 mm
11:24 8.9 °C 7.3 °C 1018.5 hPa SSW 25.9 km/h 17.2 km/h 90 % 0 mm
11:29 8.7 °C 7.2 °C 1018.5 hPa North 31.5 km/h 15.3 km/h 90 % 0.25 mm
11:34 8.7 °C 7.3 °C 1018.5 hPa SW 29.6 km/h 26.1 km/h 91 % 0.25 mm
11:39 8.9 °C 7.5 °C 1018.5 hPa SSW 38.9 km/h 18.3 km/h 91 % 0.25 mm
11:44 9.1 °C 7.6 °C 1018.5 hPa SSW 42.6 km/h 26.9 km/h 90 % 0.25 mm
11:49 9.2 °C 7.4 °C 1018.5 hPa SSW 44.4 km/h 34.1 km/h 89 % 0.25 mm
11:54 9.4 °C 7.5 °C 1018.5 hPa SW 48.1 km/h 26.7 km/h 88 % 0.25 mm
11:59 9.4 °C 7.4 °C 1018.5 hPa SSW 35.2 km/h 24.3 km/h 87 % 0.25 mm
12:04 9.5 °C 7.4 °C 1018.2 hPa SSW 35.2 km/h 19.2 km/h 87 % 0.25 mm
12:09 9.6 °C 7.4 °C 1018.2 hPa SW 40.7 km/h 29 km/h 86 % 0.25 mm
12:14 9.6 °C 7.4 °C 1018.5 hPa SSW 38.9 km/h 22.2 km/h 86 % 0.25 mm
12:19 9.5 °C 7.4 °C 1018.5 hPa SSW 33.3 km/h 23.5 km/h 87 % 0.25 mm
12:24 9.2 °C 7.3 °C 1018.2 hPa South 42.6 km/h 21.6 km/h 88 % 0.25 mm
12:29 9.2 °C 7.4 °C 1018.2 hPa SSW 40.2 km/h 34.8 km/h 89 % 0 mm
12:34 9.6 °C 7.9 °C 1018.2 hPa SSW 29.6 km/h 17.4 km/h 89 % 0 mm
12:39 9.8 °C 7.9 °C 1018.2 hPa SSW 35.2 km/h 27.8 km/h 88 % 0 mm
12:44 9.3 °C 7.4 °C 1018.2 hPa North 33.3 km/h 29.5 km/h 88 % 0 mm
12:49 8.8 °C 7.1 °C 1018.2 hPa SSW 38.9 km/h 24.6 km/h 89 % 0.25 mm
12:54 9 °C 7.3 °C 1018.2 hPa SSW 42.6 km/h 28.8 km/h 89 % 0.25 mm
12:59 9.3 °C 7.6 °C 1018.2 hPa SSW 31.5 km/h 18.3 km/h 89 % 0.25 mm
13:04 9.6 °C 7.7 °C 1018.2 hPa SSW 38.9 km/h 23.3 km/h 88 % 0.25 mm
13:09 9.8 °C 7.9 °C 1018.2 hPa SSW 35.2 km/h 19 km/h 88 % 0.25 mm
13:14 9.8 °C 7.6 °C 1018.2 hPa SSW 40.7 km/h 33.5 km/h 86 % 0.25 mm
13:19 10.1 °C 7.9 °C 1018.2 hPa SSW 38.9 km/h 27 km/h 86 % 0.25 mm
13:24 10 °C 7.8 °C 1018.2 hPa SW 35.2 km/h 22.5 km/h 86 % 0.25 mm
13:29 9.9 °C 7.7 °C 1018.5 hPa SSW 31.5 km/h 26.6 km/h 86 % 0.25 mm
13:34 9.5 °C 7.3 °C 1018.5 hPa South 51.8 km/h 25.9 km/h 86 % 0.25 mm
13:39 9 °C 6.9 °C 1018.5 hPa SSW 33.3 km/h 27.7 km/h 87 % 0.25 mm
13:44 9.1 °C 7.4 °C 1018.5 hPa SSW 44.4 km/h 23 km/h 89 % 0.25 mm
13:49 9.4 °C 7.6 °C 1018.5 hPa SSW 31.5 km/h 23.3 km/h 88 % 0 mm
13:54 9.6 °C 7.4 °C 1018.5 hPa SSW 38.9 km/h 24.1 km/h 86 % 0 mm
13:59 9.8 °C 7.4 °C 1018.2 hPa SSW 33.3 km/h 26.7 km/h 85 % 0 mm
14:04 9.9 °C 7.3 °C 1018.5 hPa SSW 38.6 km/h 32.8 km/h 84 % 0 mm
14:09 9.8 °C 7.2 °C 1018.5 hPa SSW 42.6 km/h 30.1 km/h 84 % 0 mm
14:14 9.9 °C 7.5 °C 1018.5 hPa SSW 29.6 km/h 30.7 km/h 85 % 0 mm
14:19 10 °C 7.2 °C 1018.5 hPa SSW 44.4 km/h 23.3 km/h 83 % 0 mm
14:24 9.6 °C 7.3 °C 1018.8 hPa SSW 46.3 km/h 26.6 km/h 86 % 0 mm
14:29 9.1 °C 7 °C 1018.8 hPa SSW 40.7 km/h 19.2 km/h 87 % 0 mm
14:34 9.1 °C 7.1 °C 1018.8 hPa South 31.5 km/h 20.8 km/h 87 % 0 mm
14:39 9.2 °C 7.2 °C 1018.8 hPa SSE 31.5 km/h 20.9 km/h 87 % 0 mm
14:44 9.2 °C 7.2 °C 1018.8 hPa SSW 38.9 km/h 23.2 km/h 87 % 0 mm
14:49 9.1 °C 6.9 °C 1018.8 hPa South 40.7 km/h 23.7 km/h 86 % 0 mm
14:54 9.3 °C 6.9 °C 1018.8 hPa SSW 46.7 km/h 25.7 km/h 85 % 0 mm
14:59 9.5 °C 7.1 °C 1018.8 hPa SSW 31.5 km/h 18.5 km/h 85 % 0 mm
15:04 9.7 °C 7.3 °C 1018.8 hPa SSW 31.5 km/h 24.6 km/h 85 % 0 mm
15:09 9.7 °C 7.5 °C 1018.8 hPa SSW 31.5 km/h 21.1 km/h 86 % 0 mm
15:14 9.6 °C 7.5 °C 1019.2 hPa SSW 33.3 km/h 22.9 km/h 87 % 0 mm
15:19 9.1 °C 7.1 °C 1019.2 hPa North 46.3 km/h 31.7 km/h 87 % 0 mm
15:24 8.9 °C 6.7 °C 1019.5 hPa SSW 38.9 km/h 33.8 km/h 86 % 0 mm
15:29 9.1 °C 6.7 °C 1019.5 hPa SSW 37 km/h 24 km/h 85 % 0.25 mm
15:34 9.1 °C 6.7 °C 1019.5 hPa South 27.8 km/h 23.3 km/h 85 % 0.25 mm
15:39 9.3 °C 7.1 °C 1019.5 hPa SW 32.2 km/h 27.8 km/h 86 % 0.25 mm
15:44 9.4 °C 7 °C 1019.5 hPa SW 42.6 km/h 29.6 km/h 85 % 0.25 mm
15:49 9.2 °C 6.9 °C 1019.5 hPa SSW 38.9 km/h 22.4 km/h 86 % 0.25 mm
15:54 9.2 °C 6.9 °C 1019.5 hPa SSW 37 km/h 24.3 km/h 86 % 0.25 mm
15:59 9.3 °C 7.1 °C 1019.9 hPa South 31.5 km/h 17.7 km/h 86 % 0.25 mm
16:04 9.1 °C 6.8 °C 1019.9 hPa SSW 37 km/h 30.4 km/h 86 % 0.25 mm
16:09 8.8 °C 6.6 °C 1019.9 hPa SSW 38.9 km/h 20.3 km/h 86 % 0.25 mm
16:14 8.7 °C 6.6 °C 1019.9 hPa SSW 35.2 km/h 24.5 km/h 87 % 0.25 mm
16:19 8.5 °C 6.6 °C 1020.2 hPa SSW 38.9 km/h 27.4 km/h 88 % 0.25 mm
16:24 8.3 °C 6.6 °C 1020.2 hPa SW 37 km/h 21.2 km/h 89 % 0.25 mm
16:29 8.2 °C 6.5 °C 1019.9 hPa SSW 19.3 km/h 16.1 km/h 89 % 0 mm
16:34 8.1 °C 6.4 °C 1020.2 hPa SSW 38.9 km/h 29.3 km/h 89 % 0 mm
16:39 8.1 °C 6.3 °C 1020.2 hPa SSW 31.5 km/h 27.7 km/h 89 % 0 mm
16:44 8.1 °C 6.2 °C 1020.2 hPa SSW 37 km/h 22.9 km/h 88 % 0 mm
16:49 8 °C 6.1 °C 1020.5 hPa South 27.8 km/h 15.3 km/h 88 % 0 mm
16:54 7.9 °C 6 °C 1020.5 hPa SSW 22.2 km/h 21.7 km/h 88 % 0 mm
16:59 7.8 °C 5.9 °C 1020.5 hPa South 24.1 km/h 22.7 km/h 88 % 0 mm
17:04 7.8 °C 5.9 °C 1020.5 hPa SSW 35.2 km/h 23.5 km/h 88 % 0 mm
17:09 7.8 °C 5.9 °C 1020.5 hPa SSW 29.6 km/h 17.7 km/h 88 % 0 mm
17:14 7.8 °C 6.1 °C 1020.5 hPa South 31.5 km/h 21.4 km/h 89 % 0 mm
17:19 7.8 °C 6.1 °C 1020.5 hPa SSW 35.2 km/h 28 km/h 89 % 0 mm
17:24 7.7 °C 6 °C 1020.9 hPa SSW 25.9 km/h 22.5 km/h 89 % 0 mm
17:29 7.7 °C 6.2 °C 1020.9 hPa SSW 35.2 km/h 22.4 km/h 90 % 0 mm
17:34 7.7 °C 6.2 °C 1020.9 hPa SW 33.8 km/h 30.4 km/h 90 % 0 mm
17:39 7.7 °C 6.2 °C 1021.2 hPa SSW 25.9 km/h 16.9 km/h 90 % 0 mm
17:44 7.7 °C 6.2 °C 1021.2 hPa SSW 31.5 km/h 25.1 km/h 90 % 0 mm
17:49 7.7 °C 6 °C 1021.2 hPa SW 25.9 km/h 20.3 km/h 89 % 0 mm
17:54 7.8 °C 6.2 °C 1021.2 hPa SSW 29.6 km/h 15.6 km/h 90 % 0 mm
17:59 7.8 °C 6.1 °C 1021.2 hPa SSW 37 km/h 24.5 km/h 89 % 0 mm
18:04 7.8 °C 6.1 °C 1021.2 hPa South 38.9 km/h 21.4 km/h 89 % 0 mm
18:09 7.8 °C 6.1 °C 1021.2 hPa South 38.9 km/h 20 km/h 89 % 0 mm
18:14 7.8 °C 6.1 °C 1021.2 hPa SSW 22.5 km/h 22.5 km/h 89 % 0 mm
18:19 7.8 °C 6.1 °C 1021.6 hPa SSW 35.2 km/h 27.5 km/h 89 % 0 mm
18:24 7.7 °C 6.2 °C 1021.6 hPa South 37 km/h 24.9 km/h 90 % 0 mm
18:29 7.7 °C 6.1 °C 1021.6 hPa SSW 25.7 km/h 18.7 km/h 90 % 0 mm
18:34 7.6 °C 6.1 °C 1021.6 hPa SW 37 km/h 24.5 km/h 90 % 0 mm
18:39 7.6 °C 6 °C 1021.6 hPa SSW 20.4 km/h 22.5 km/h 90 % 0 mm
18:44 7.5 °C 5.9 °C 1021.9 hPa SSW 35.2 km/h 18.7 km/h 90 % 0 mm
18:49 7.4 °C 5.8 °C 1021.9 hPa SSW 27.8 km/h 17.5 km/h 90 % 0 mm
18:54 7.3 °C 5.9 °C 1021.9 hPa SW 31.5 km/h 20.1 km/h 91 % 0 mm
18:59 7.2 °C 5.8 °C 1021.9 hPa SW 25.9 km/h 16.4 km/h 91 % 0 mm
19:04 7.2 °C 5.6 °C 1021.9 hPa SSW 37 km/h 22.9 km/h 90 % 0 mm
19:09 7.1 °C 5.5 °C 1021.9 hPa SSW 37 km/h 25.1 km/h 90 % 0 mm
19:14 7 °C 5.4 °C 1022.2 hPa South 31.5 km/h 20.3 km/h 90 % 0 mm
19:19 7 °C 5.4 °C 1021.9 hPa SSW 35.2 km/h 23.8 km/h 90 % 0 mm
19:24 6.9 °C 5.4 °C 1022.2 hPa SW 35.4 km/h 19 km/h 90 % 0 mm
19:29 6.9 °C 5.4 °C 1022.2 hPa SSW 31.5 km/h 15.4 km/h 90 % 0 mm
19:34 6.9 °C 5.6 °C 1022.2 hPa SSW 24.1 km/h 19.6 km/h 91 % 0 mm
19:39 7 °C 5.6 °C 1022.2 hPa SSW 31.5 km/h 18.8 km/h 91 % 0 mm
19:44 7 °C 5.6 °C 1022.6 hPa SSW 27.8 km/h 20.3 km/h 91 % 0 mm
19:49 7 °C 5.6 °C 1022.6 hPa SW 16.7 km/h 18.3 km/h 91 % 0 mm
19:54 7 °C 5.6 °C 1022.6 hPa SSW 31.5 km/h 23 km/h 91 % 0 mm
19:59 6.9 °C 5.6 °C 1022.6 hPa SW 33.8 km/h 19.8 km/h 91 % 0 mm
20:04 6.9 °C 5.6 °C 1022.6 hPa SW 31.5 km/h 14.2 km/h 91 % 0 mm
20:09 6.9 °C 5.7 °C 1022.9 hPa SW 27.4 km/h 22.5 km/h 92 % 0 mm
20:14 6.9 °C 5.7 °C 1022.9 hPa SSW 20.4 km/h 13.2 km/h 92 % 0 mm
20:19 6.9 °C 5.7 °C 1022.9 hPa SW 35.2 km/h 19.5 km/h 92 % 0 mm
20:24 6.9 °C 5.7 °C 1023.2 hPa SSW 37 km/h 20.8 km/h 92 % 0 mm
20:29 6.9 °C 5.7 °C 1023.2 hPa SSW 37 km/h 24 km/h 92 % 0 mm
20:34 6.9 °C 5.7 °C 1023.2 hPa South 20.9 km/h 21.2 km/h 92 % 0 mm
20:39 6.9 °C 5.7 °C 1023.2 hPa SW 22.5 km/h 13.4 km/h 92 % 0 mm
20:44 6.9 °C 5.7 °C 1023.2 hPa SW 20.4 km/h 14.6 km/h 92 % 0 mm
20:49 6.9 °C 5.7 °C 1023.2 hPa SSW 25.9 km/h 15 km/h 92 % 0 mm
20:54 6.9 °C 5.7 °C 1023.2 hPa North 27.8 km/h 15.3 km/h 92 % 0 mm
20:59 6.9 °C 5.7 °C 1023.2 hPa SW 29.6 km/h 21.6 km/h 92 % 0 mm
21:04 6.9 °C 5.8 °C 1023.2 hPa SSW 25.9 km/h 20.6 km/h 93 % 0 mm
21:09 6.9 °C 5.8 °C 1023.2 hPa SW 27.8 km/h 20.4 km/h 93 % 0 mm
21:14 6.8 °C 5.8 °C 1023.2 hPa South 31.5 km/h 20.9 km/h 93 % 0 mm
21:19 6.8 °C 5.8 °C 1023.6 hPa South 25.9 km/h 26.6 km/h 93 % 0 mm
21:24 6.8 °C 5.8 °C 1023.6 hPa SW 20.4 km/h 15.1 km/h 93 % 0 mm
21:29 6.8 °C 5.8 °C 1023.6 hPa South 24.1 km/h 16.9 km/h 93 % 0 mm
21:34 6.8 °C 5.8 °C 1023.6 hPa SSW 27.8 km/h 13 km/h 93 % 0 mm
21:39 6.8 °C 5.8 °C 1023.6 hPa SSW 32.2 km/h 17.7 km/h 93 % 0 mm
21:44 6.8 °C 5.7 °C 1023.6 hPa SSW 18.5 km/h 11.6 km/h 93 % 0 mm
21:49 6.8 °C 5.8 °C 1023.6 hPa North 25.9 km/h 15.1 km/h 93 % 0 mm
21:54 6.8 °C 5.7 °C 1023.6 hPa SSW 25.9 km/h 14.6 km/h 93 % 0 mm
21:59 6.8 °C 5.8 °C 1023.9 hPa SSW 31.5 km/h 20 km/h 93 % 0 mm
22:04 6.8 °C 5.8 °C 1023.9 hPa SW 27.8 km/h 15 km/h 93 % 0 mm
22:09 6.8 °C 5.8 °C 1023.9 hPa SW 25.9 km/h 19.3 km/h 93 % 0 mm
22:14 6.8 °C 5.7 °C 1023.9 hPa SSW 24.1 km/h 13.2 km/h 93 % 0 mm
22:19 6.8 °C 5.7 °C 1023.6 hPa SSW 22.2 km/h 15.4 km/h 93 % 0 mm
22:24 6.7 °C 5.7 °C 1023.9 hPa North 29.6 km/h 14.5 km/h 93 % 0 mm
22:29 6.7 °C 5.7 °C 1023.9 hPa SSW 29.6 km/h 16.4 km/h 93 % 0 mm
22:34 6.8 °C 5.7 °C 1023.9 hPa South 24.1 km/h 14.3 km/h 93 % 0 mm
22:39 6.8 °C 5.8 °C 1024.3 hPa SSW 24.1 km/h 21.4 km/h 93 % 0 mm
22:44 6.8 °C 5.8 °C 1024.3 hPa SSW 38.9 km/h 15.8 km/h 93 % 0 mm
22:49 6.9 °C 5.8 °C 1024.3 hPa SSW 25.9 km/h 19.2 km/h 93 % 0 mm
22:54 6.9 °C 5.8 °C 1024.3 hPa SSW 20.9 km/h 18 km/h 93 % 0 mm
22:59 6.8 °C 5.8 °C 1024.3 hPa SSW 27.8 km/h 16.9 km/h 93 % 0 mm
23:04 6.8 °C 5.8 °C 1024.3 hPa SSW 27.8 km/h 12.6 km/h 93 % 0 mm
23:09 6.8 °C 5.8 °C 1024.3 hPa SW 18.5 km/h 11.6 km/h 93 % 0 mm
23:14 6.8 °C 5.7 °C 1024.3 hPa SSW 16.7 km/h 9 km/h 93 % 0 mm
23:19 6.8 °C 5.7 °C 1024.3 hPa SSW 25.7 km/h 15.1 km/h 93 % 0 mm
23:24 6.7 °C 5.7 °C 1024.3 hPa SW 22.2 km/h 18.7 km/h 93 % 0 mm
23:29 6.7 °C 5.6 °C 1024.3 hPa SW 18.5 km/h 16.4 km/h 93 % 0 mm
23:34 6.6 °C 5.6 °C 1024.3 hPa SW 22.5 km/h 14.2 km/h 93 % 0 mm
23:39 6.6 °C 5.5 °C 1024.3 hPa SSW 20.4 km/h 16.3 km/h 93 % 0 mm
23:44 6.5 °C 5.4 °C 1024.6 hPa SSW 22.2 km/h 17.1 km/h 93 % 0 mm
23:49 6.5 °C 5.4 °C 1024.3 hPa SW 31.5 km/h 20.1 km/h 93 % 0 mm
23:54 6.6 °C 5.5 °C 1024.3 hPa North 25.9 km/h 19.8 km/h 93 % 0 mm
23:59 6.5 °C 5.4 °C 1024.3 hPa SW 20.4 km/h 16.9 km/h 93 % 0 mm
Ararat Weather
Compliments of Weather Underground - 2.25 mb
Click here to send mail.


ABOUT

Live weather data from Ararat, Victoria, Australia, 3377
Data uploaded from Cumulus every 5 minutes to Weather Underground.
This site then downloads the raw data for formatting and display.
Metric and imperial data can be displayed. Graphs and historical data available.
Includes Sun and Moon times and rain image live from BOM.

Check out Ararat Weather on Facebook, Twitter and Google +

Help support ongoing costs by checking out the ads





Follow @AraratWeather